sensor_id;sensor_type;location;lat;lon;timestamp;P1;durP1;ratioP1;P2;durP2;ratioP2
37051;SDS011;22964;52.272;13.356;2022-11-04T00:01:40;8.45;;;3.55;;
37051;SDS011;22964;52.272;13.356;2022-11-04T00:04:07;7.28;;;3.90;;
37051;SDS011;22964;52.272;13.356;2022-11-04T00:06:34;7.95;;;3.50;;
37051;SDS011;22964;52.272;13.356;2022-11-04T00:09:00;6.97;;;3.47;;
37051;SDS011;22964;52.272;13.356;2022-11-04T00:11:26;7.88;;;3.50;;
37051;SDS011;22964;52.272;13.356;2022-11-04T00:14:11;8.75;;;3.60;;
37051;SDS011;22964;52.272;13.356;2022-11-04T00:16:38;8.07;;;4.05;;
37051;SDS011;22964;52.272;13.356;2022-11-04T00:19:23;7.03;;;3.13;;
37051;SDS011;22964;52.272;13.356;2022-11-04T00:21:49;7.13;;;3.53;;
37051;SDS011;22964;52.272;13.356;2022-11-04T00:24:33;7.63;;;3.60;;
37051;SDS011;22964;52.272;13.356;2022-11-04T00:27:19;9.68;;;3.58;;
37051;SDS011;22964;52.272;13.356;2022-11-04T00:30:04;6.22;;;3.50;;
37051;SDS011;22964;52.272;13.356;2022-11-04T00:32:32;6.03;;;3.33;;
37051;SDS011;22964;52.272;13.356;2022-11-04T00:35:17;6.88;;;3.60;;
37051;SDS011;22964;52.272;13.356;2022-11-04T00:37:44;9.70;;;4.15;;
37051;SDS011;22964;52.272;13.356;2022-11-04T00:40:11;8.88;;;3.70;;
37051;SDS011;22964;52.272;13.356;2022-11-04T00:42:39;7.68;;;3.97;;
37051;SDS011;22964;52.272;13.356;2022-11-04T00:45:08;8.30;;;4.03;;
37051;SDS011;22964;52.272;13.356;2022-11-04T00:47:34;5.90;;;3.53;;
37051;SDS011;22964;52.272;13.356;2022-11-04T00:50:00;8.40;;;4.15;;
37051;SDS011;22964;52.272;13.356;2022-11-04T00:52:26;8.32;;;4.20;;
37051;SDS011;22964;52.272;13.356;2022-11-04T00:54:51;6.25;;;3.75;;
37051;SDS011;22964;52.272;13.356;2022-11-04T00:57:17;6.35;;;3.80;;
37051;SDS011;22964;52.272;13.356;2022-11-04T00:59:43;6.70;;;3.42;;
37051;SDS011;22964;52.272;13.356;2022-11-04T01:02:10;7.65;;;3.90;;
37051;SDS011;22964;52.272;13.356;2022-11-04T01:04:36;7.78;;;3.85;;
37051;SDS011;22964;52.272;13.356;2022-11-04T01:07:01;6.60;;;3.55;;
37051;SDS011;22964;52.272;13.356;2022-11-04T01:09:28;6.13;;;3.83;;
37051;SDS011;22964;52.272;13.356;2022-11-04T01:11:53;7.60;;;3.88;;
37051;SDS011;22964;52.272;13.356;2022-11-04T01:14:19;8.80;;;4.32;;
37051;SDS011;22964;52.272;13.356;2022-11-04T01:16:45;7.15;;;3.90;;
37051;SDS011;22964;52.272;13.356;2022-11-04T01:19:14;8.20;;;4.00;;
37051;SDS011;22964;52.272;13.356;2022-11-04T01:21:40;6.70;;;3.65;;
37051;SDS011;22964;52.272;13.356;2022-11-04T01:24:05;8.20;;;3.75;;
37051;SDS011;22964;52.272;13.356;2022-11-04T01:26:31;8.55;;;3.58;;
37051;SDS011;22964;52.272;13.356;2022-11-04T01:28:57;7.80;;;3.70;;
37051;SDS011;22964;52.272;13.356;2022-11-04T01:31:28;8.23;;;4.00;;
37051;SDS011;22964;52.272;13.356;2022-11-04T01:33:55;7.78;;;4.00;;
37051;SDS011;22964;52.272;13.356;2022-11-04T01:36:21;8.90;;;4.10;;
37051;SDS011;22964;52.272;13.356;2022-11-04T01:38:48;8.35;;;4.15;;
37051;SDS011;22964;52.272;13.356;2022-11-04T01:41:23;9.70;;;3.80;;
37051;SDS011;22964;52.272;13.356;2022-11-04T01:43:55;7.70;;;4.15;;
37051;SDS011;22964;52.272;13.356;2022-11-04T01:49:21;8.70;;;4.07;;
37051;SDS011;22964;52.272;13.356;2022-11-04T01:52:13;6.55;;;3.65;;
37051;SDS011;22964;52.272;13.356;2022-11-04T01:54:45;11.32;;;4.43;;
37051;SDS011;22964;52.272;13.356;2022-11-04T01:57:16;7.53;;;3.88;;
37051;SDS011;22964;52.272;13.356;2022-11-04T01:59:44;8.07;;;3.88;;
37051;SDS011;22964;52.272;13.356;2022-11-04T02:02:10;7.65;;;4.15;;
37051;SDS011;22964;52.272;13.356;2022-11-04T02:04:37;8.85;;;3.92;;
37051;SDS011;22964;52.272;13.356;2022-11-04T02:07:04;8.32;;;4.10;;
37051;SDS011;22964;52.272;13.356;2022-11-04T02:09:33;8.70;;;4.45;;
37051;SDS011;22964;52.272;13.356;2022-11-04T02:12:00;8.40;;;4.20;;
37051;SDS011;22964;52.272;13.356;2022-11-04T02:14:45;6.80;;;4.10;;
37051;SDS011;22964;52.272;13.356;2022-11-04T02:25:28;9.13;;;4.43;;
37051;SDS011;22964;52.272;13.356;2022-11-04T02:28:25;9.52;;;4.55;;
37051;SDS011;22964;52.272;13.356;2022-11-04T02:48:09;9.30;;;5.00;;
37051;SDS011;22964;52.272;13.356;2022-11-04T02:50:50;9.50;;;5.10;;
37051;SDS011;22964;52.272;13.356;2022-11-04T02:53:26;8.85;;;4.70;;
37051;SDS011;22964;52.272;13.356;2022-11-04T02:55:57;9.20;;;5.30;;
37051;SDS011;22964;52.272;13.356;2022-11-04T02:58:32;10.07;;;5.35;;
37051;SDS011;22964;52.272;13.356;2022-11-04T03:01:02;10.23;;;5.20;;
37051;SDS011;22964;52.272;13.356;2022-11-04T03:03:32;11.93;;;5.05;;
37051;SDS011;22964;52.272;13.356;2022-11-04T03:08:30;8.27;;;4.30;;
37051;SDS011;22964;52.272;13.356;2022-11-04T03:11:03;7.10;;;4.63;;
37051;SDS011;22964;52.272;13.356;2022-11-04T03:13:43;8.82;;;4.93;;
37051;SDS011;22964;52.272;13.356;2022-11-04T03:16:16;8.15;;;4.60;;
37051;SDS011;22964;52.272;13.356;2022-11-04T03:18:53;8.33;;;4.43;;
37051;SDS011;22964;52.272;13.356;2022-11-04T03:21:24;8.68;;;4.30;;
37051;SDS011;22964;52.272;13.356;2022-11-04T03:23:53;8.90;;;4.53;;
37051;SDS011;22964;52.272;13.356;2022-11-04T03:31:46;7.80;;;4.80;;
37051;SDS011;22964;52.272;13.356;2022-11-04T03:34:22;10.02;;;5.07;;
37051;SDS011;22964;52.272;13.356;2022-11-04T03:36:48;14.25;;;5.15;;
37051;SDS011;22964;52.272;13.356;2022-11-04T03:39:14;9.75;;;5.03;;
37051;SDS011;22964;52.272;13.356;2022-11-04T03:41:41;9.80;;;5.03;;
37051;SDS011;22964;52.272;13.356;2022-11-04T03:44:12;8.07;;;5.20;;
37051;SDS011;22964;52.272;13.356;2022-11-04T03:46:39;10.27;;;5.47;;
37051;SDS011;22964;52.272;13.356;2022-11-04T03:49:05;8.93;;;5.22;;
37051;SDS011;22964;52.272;13.356;2022-11-04T03:51:31;8.40;;;5.13;;
37051;SDS011;22964;52.272;13.356;2022-11-04T03:53:57;9.15;;;4.93;;
37051;SDS011;22964;52.272;13.356;2022-11-04T04:02:38;10.57;;;4.95;;
37051;SDS011;22964;52.272;13.356;2022-11-04T04:05:10;9.27;;;5.20;;
37051;SDS011;22964;52.272;13.356;2022-11-04T04:13:30;9.35;;;4.75;;
37051;SDS011;22964;52.272;13.356;2022-11-04T04:18:51;11.07;;;5.07;;
37051;SDS011;22964;52.272;13.356;2022-11-04T04:21:38;10.15;;;4.97;;
37051;SDS011;22964;52.272;13.356;2022-11-04T04:24:08;9.02;;;5.07;;
37051;SDS011;22964;52.272;13.356;2022-11-04T04:26:55;9.95;;;5.20;;
37051;SDS011;22964;52.272;13.356;2022-11-04T04:29:40;9.15;;;5.40;;
37051;SDS011;22964;52.272;13.356;2022-11-04T04:32:09;10.73;;;5.10;;
37051;SDS011;22964;52.272;13.356;2022-11-04T04:34:36;10.10;;;5.57;;
37051;SDS011;22964;52.272;13.356;2022-11-04T04:39:50;10.07;;;4.97;;
37051;SDS011;22964;52.272;13.356;2022-11-04T04:42:40;9.52;;;5.05;;
37051;SDS011;22964;52.272;13.356;2022-11-04T04:48:01;7.85;;;5.10;;
37051;SDS011;22964;52.272;13.356;2022-11-04T04:50:28;11.25;;;4.80;;
37051;SDS011;22964;52.272;13.356;2022-11-04T04:53:01;8.13;;;4.72;;
37051;SDS011;22964;52.272;13.356;2022-11-04T04:55:30;9.25;;;4.65;;
37051;SDS011;22964;52.272;13.356;2022-11-04T04:57:57;9.32;;;4.78;;
37051;SDS011;22964;52.272;13.356;2022-11-04T05:00:23;7.72;;;4.30;;
37051;SDS011;22964;52.272;13.356;2022-11-04T05:02:49;8.02;;;4.63;;
37051;SDS011;22964;52.272;13.356;2022-11-04T05:05:15;11.18;;;4.82;;
37051;SDS011;22964;52.272;13.356;2022-11-04T05:07:41;6.95;;;4.40;;
37051;SDS011;22964;52.272;13.356;2022-11-04T05:10:08;8.25;;;4.78;;
37051;SDS011;22964;52.272;13.356;2022-11-04T05:12:35;10.60;;;4.55;;
37051;SDS011;22964;52.272;13.356;2022-11-04T05:15:20;8.43;;;4.85;;
37051;SDS011;22964;52.272;13.356;2022-11-04T05:17:46;9.60;;;4.80;;
37051;SDS011;22964;52.272;13.356;2022-11-04T05:20:12;11.80;;;4.80;;
37051;SDS011;22964;52.272;13.356;2022-11-04T05:22:38;10.32;;;4.90;;
37051;SDS011;22964;52.272;13.356;2022-11-04T05:25:04;7.30;;;4.85;;
37051;SDS011;22964;52.272;13.356;2022-11-04T05:27:30;8.27;;;5.10;;
37051;SDS011;22964;52.272;13.356;2022-11-04T05:29:56;9.95;;;5.05;;
37051;SDS011;22964;52.272;13.356;2022-11-04T05:32:21;7.47;;;4.78;;
37051;SDS011;22964;52.272;13.356;2022-11-04T05:34:47;8.43;;;4.78;;
37051;SDS011;22964;52.272;13.356;2022-11-04T05:37:13;8.65;;;4.78;;
37051;SDS011;22964;52.272;13.356;2022-11-04T05:39:38;10.27;;;5.30;;
37051;SDS011;22964;52.272;13.356;2022-11-04T05:42:04;8.57;;;5.25;;
37051;SDS011;22964;52.272;13.356;2022-11-04T05:44:30;7.43;;;4.95;;
37051;SDS011;22964;52.272;13.356;2022-11-04T05:46:55;10.82;;;6.15;;
37051;SDS011;22964;52.272;13.356;2022-11-04T05:49:21;10.93;;;5.30;;
37051;SDS011;22964;52.272;13.356;2022-11-04T05:51:47;9.85;;;5.40;;
37051;SDS011;22964;52.272;13.356;2022-11-04T05:54:12;8.18;;;5.28;;
37051;SDS011;22964;52.272;13.356;2022-11-04T05:56:38;8.57;;;4.80;;
37051;SDS011;22964;52.272;13.356;2022-11-04T05:59:04;9.43;;;4.78;;
37051;SDS011;22964;52.272;13.356;2022-11-04T06:01:33;10.10;;;5.15;;
37051;SDS011;22964;52.272;13.356;2022-11-04T06:04:00;9.00;;;5.28;;
37051;SDS011;22964;52.272;13.356;2022-11-04T06:06:29;9.93;;;5.22;;
37051;SDS011;22964;52.272;13.356;2022-11-04T06:08:57;12.70;;;5.90;;
37051;SDS011;22964;52.272;13.356;2022-11-04T06:11:23;10.57;;;5.60;;
37051;SDS011;22964;52.272;13.356;2022-11-04T06:13:52;9.55;;;5.50;;
37051;SDS011;22964;52.272;13.356;2022-11-04T06:16:19;10.43;;;5.72;;
37051;SDS011;22964;52.272;13.356;2022-11-04T06:18:46;12.30;;;6.40;;
37051;SDS011;22964;52.272;13.356;2022-11-04T06:23:37;10.43;;;6.25;;
37051;SDS011;22964;52.272;13.356;2022-11-04T06:26:04;12.95;;;6.30;;
37051;SDS011;22964;52.272;13.356;2022-11-04T06:28:30;11.32;;;5.72;;
37051;SDS011;22964;52.272;13.356;2022-11-04T06:30:57;8.77;;;5.93;;
37051;SDS011;22964;52.272;13.356;2022-11-04T06:33:23;9.40;;;5.85;;
37051;SDS011;22964;52.272;13.356;2022-11-04T06:35:49;10.63;;;6.30;;
37051;SDS011;22964;52.272;13.356;2022-11-04T06:38:14;11.75;;;5.65;;
37051;SDS011;22964;52.272;13.356;2022-11-04T06:40:40;12.52;;;6.43;;
37051;SDS011;22964;52.272;13.356;2022-11-04T06:43:06;11.35;;;5.82;;
37051;SDS011;22964;52.272;13.356;2022-11-04T06:45:32;8.95;;;5.82;;
37051;SDS011;22964;52.272;13.356;2022-11-04T06:47:57;8.07;;;5.70;;
37051;SDS011;22964;52.272;13.356;2022-11-04T06:50:23;12.30;;;6.25;;
37051;SDS011;22964;52.272;13.356;2022-11-04T06:52:49;9.43;;;5.80;;
37051;SDS011;22964;52.272;13.356;2022-11-04T06:55:14;8.77;;;5.63;;
37051;SDS011;22964;52.272;13.356;2022-11-04T06:57:40;11.15;;;5.72;;
37051;SDS011;22964;52.272;13.356;2022-11-04T07:00:06;9.48;;;6.03;;
37051;SDS011;22964;52.272;13.356;2022-11-04T07:02:32;9.20;;;5.95;;
37051;SDS011;22964;52.272;13.356;2022-11-04T07:04:58;9.30;;;5.80;;
37051;SDS011;22964;52.272;13.356;2022-11-04T07:07:24;9.18;;;5.75;;
37051;SDS011;22964;52.272;13.356;2022-11-04T07:09:49;12.98;;;6.43;;
37051;SDS011;22964;52.272;13.356;2022-11-04T07:12:15;9.02;;;5.65;;
37051;SDS011;22964;52.272;13.356;2022-11-04T07:14:41;9.48;;;5.68;;
37051;SDS011;22964;52.272;13.356;2022-11-04T07:17:06;10.02;;;6.20;;
37051;SDS011;22964;52.272;13.356;2022-11-04T07:19:32;8.77;;;5.53;;
37051;SDS011;22964;52.272;13.356;2022-11-04T07:21:58;9.00;;;5.75;;
37051;SDS011;22964;52.272;13.356;2022-11-04T07:24:24;10.30;;;5.80;;
37051;SDS011;22964;52.272;13.356;2022-11-04T07:26:49;8.52;;;5.50;;
37051;SDS011;22964;52.272;13.356;2022-11-04T07:29:15;9.38;;;5.53;;
37051;SDS011;22964;52.272;13.356;2022-11-04T07:31:42;8.30;;;5.60;;
37051;SDS011;22964;52.272;13.356;2022-11-04T07:34:07;8.98;;;5.40;;
37051;SDS011;22964;52.272;13.356;2022-11-04T07:36:33;9.75;;;5.72;;
37051;SDS011;22964;52.272;13.356;2022-11-04T07:38:59;11.27;;;5.75;;
37051;SDS011;22964;52.272;13.356;2022-11-04T07:41:26;10.48;;;5.35;;
37051;SDS011;22964;52.272;13.356;2022-11-04T07:43:51;8.10;;;5.72;;
37051;SDS011;22964;52.272;13.356;2022-11-04T07:46:19;7.90;;;4.97;;
37051;SDS011;22964;52.272;13.356;2022-11-04T07:48:45;8.90;;;6.00;;
37051;SDS011;22964;52.272;13.356;2022-11-04T07:51:12;7.78;;;5.10;;
37051;SDS011;22964;52.272;13.356;2022-11-04T07:53:40;8.48;;;5.35;;
37051;SDS011;22964;52.272;13.356;2022-11-04T07:56:07;9.15;;;5.30;;
37051;SDS011;22964;52.272;13.356;2022-11-04T07:58:38;7.82;;;5.07;;
37051;SDS011;22964;52.272;13.356;2022-11-04T08:01:06;10.20;;;5.70;;
37051;SDS011;22964;52.272;13.356;2022-11-04T08:03:33;8.10;;;5.20;;
37051;SDS011;22964;52.272;13.356;2022-11-04T08:06:01;8.23;;;5.18;;
37051;SDS011;22964;52.272;13.356;2022-11-04T08:08:28;6.95;;;5.13;;
37051;SDS011;22964;52.272;13.356;2022-11-04T08:10:57;10.18;;;5.25;;
37051;SDS011;22964;52.272;13.356;2022-11-04T08:13:29;8.25;;;4.97;;
37051;SDS011;22964;52.272;13.356;2022-11-04T08:15:59;7.45;;;4.95;;
37051;SDS011;22964;52.272;13.356;2022-11-04T08:18:27;8.25;;;4.80;;
37051;SDS011;22964;52.272;13.356;2022-11-04T08:20:53;7.70;;;5.07;;
37051;SDS011;22964;52.272;13.356;2022-11-04T08:23:19;8.38;;;4.90;;
37051;SDS011;22964;52.272;13.356;2022-11-04T08:25:44;7.95;;;5.05;;
37051;SDS011;22964;52.272;13.356;2022-11-04T08:28:10;7.43;;;4.72;;
37051;SDS011;22964;52.272;13.356;2022-11-04T08:30:50;8.32;;;4.85;;
37051;SDS011;22964;52.272;13.356;2022-11-04T08:33:20;7.63;;;4.85;;
37051;SDS011;22964;52.272;13.356;2022-11-04T08:35:46;10.43;;;5.25;;
37051;SDS011;22964;52.272;13.356;2022-11-04T08:38:12;7.15;;;4.88;;
37051;SDS011;22964;52.272;13.356;2022-11-04T08:40:37;6.95;;;4.63;;
37051;SDS011;22964;52.272;13.356;2022-11-04T08:43:03;7.15;;;4.60;;
37051;SDS011;22964;52.272;13.356;2022-11-04T08:45:29;9.00;;;4.60;;
37051;SDS011;22964;52.272;13.356;2022-11-04T08:47:55;9.98;;;5.38;;
37051;SDS011;22964;52.272;13.356;2022-11-04T08:50:21;7.50;;;4.32;;
37051;SDS011;22964;52.272;13.356;2022-11-04T08:52:52;7.00;;;4.43;;
37051;SDS011;22964;52.272;13.356;2022-11-04T08:55:18;7.53;;;4.60;;
37051;SDS011;22964;52.272;13.356;2022-11-04T08:57:44;8.77;;;4.90;;
37051;SDS011;22964;52.272;13.356;2022-11-04T09:00:09;7.90;;;4.72;;
37051;SDS011;22964;52.272;13.356;2022-11-04T09:02:36;6.63;;;4.60;;
37051;SDS011;22964;52.272;13.356;2022-11-04T09:05:02;6.30;;;4.40;;
37051;SDS011;22964;52.272;13.356;2022-11-04T09:07:28;7.70;;;4.57;;
37051;SDS011;22964;52.272;13.356;2022-11-04T09:09:54;6.95;;;4.40;;
37051;SDS011;22964;52.272;13.356;2022-11-04T09:12:20;6.20;;;4.45;;
37051;SDS011;22964;52.272;13.356;2022-11-04T09:14:45;7.20;;;4.55;;
37051;SDS011;22964;52.272;13.356;2022-11-04T09:17:11;6.57;;;4.25;;
37051;SDS011;22964;52.272;13.356;2022-11-04T09:19:37;6.57;;;4.75;;
37051;SDS011;22964;52.272;13.356;2022-11-04T09:22:02;7.38;;;4.90;;
37051;SDS011;22964;52.272;13.356;2022-11-04T09:24:28;7.55;;;4.30;;
37051;SDS011;22964;52.272;13.356;2022-11-04T09:26:54;7.90;;;4.22;;
37051;SDS011;22964;52.272;13.356;2022-11-04T09:29:19;6.72;;;4.38;;
37051;SDS011;22964;52.272;13.356;2022-11-04T09:31:45;7.85;;;4.38;;
37051;SDS011;22964;52.272;13.356;2022-11-04T09:34:11;7.40;;;4.38;;
37051;SDS011;22964;52.272;13.356;2022-11-04T09:36:36;6.30;;;4.20;;
37051;SDS011;22964;52.272;13.356;2022-11-04T09:39:03;9.15;;;4.25;;
37051;SDS011;22964;52.272;13.356;2022-11-04T09:47:11;6.97;;;4.03;;
37051;SDS011;22964;52.272;13.356;2022-11-04T09:49:38;7.70;;;4.20;;
37051;SDS011;22964;52.272;13.356;2022-11-04T09:52:16;6.47;;;4.00;;
37051;SDS011;22964;52.272;13.356;2022-11-04T09:54:53;9.15;;;4.40;;
37051;SDS011;22964;52.272;13.356;2022-11-04T09:57:23;5.60;;;3.63;;
37051;SDS011;22964;52.272;13.356;2022-11-04T09:59:50;6.35;;;4.05;;
37051;SDS011;22964;52.272;13.356;2022-11-04T10:10:35;5.90;;;3.67;;
37051;SDS011;22964;52.272;13.356;2022-11-04T10:24:36;5.60;;;3.67;;
37051;SDS011;22964;52.272;13.356;2022-11-04T10:27:22;6.20;;;3.17;;
37051;SDS011;22964;52.272;13.356;2022-11-04T10:29:53;5.13;;;3.15;;
37051;SDS011;22964;52.272;13.356;2022-11-04T10:32:35;5.75;;;3.13;;
37051;SDS011;22964;52.272;13.356;2022-11-04T10:35:20;6.57;;;3.00;;
37051;SDS011;22964;52.272;13.356;2022-11-04T10:37:54;5.45;;;3.05;;
37051;SDS011;22964;52.272;13.356;2022-11-04T10:40:26;5.95;;;2.90;;
37051;SDS011;22964;52.272;13.356;2022-11-04T10:42:57;5.47;;;3.20;;
37051;SDS011;22964;52.272;13.356;2022-11-04T10:45:46;5.10;;;2.67;;
37051;SDS011;22964;52.272;13.356;2022-11-04T10:48:29;4.95;;;2.78;;
37051;SDS011;22964;52.272;13.356;2022-11-04T10:51:01;4.72;;;2.75;;
37051;SDS011;22964;52.272;13.356;2022-11-04T10:53:28;4.97;;;3.20;;
37051;SDS011;22964;52.272;13.356;2022-11-04T10:58:40;6.45;;;2.85;;
37051;SDS011;22964;52.272;13.356;2022-11-04T11:01:24;5.75;;;3.08;;
37051;SDS011;22964;52.272;13.356;2022-11-04T11:03:58;5.15;;;3.28;;
37051;SDS011;22964;52.272;13.356;2022-11-04T11:06:33;5.18;;;2.70;;
37051;SDS011;22964;52.272;13.356;2022-11-04T11:09:13;4.45;;;2.70;;
37051;SDS011;22964;52.272;13.356;2022-11-04T11:15:30;5.70;;;3.38;;
37051;SDS011;22964;52.272;13.356;2022-11-04T11:18:30;6.50;;;2.92;;
37051;SDS011;22964;52.272;13.356;2022-11-04T11:21:26;4.18;;;2.65;;
37051;SDS011;22964;52.272;13.356;2022-11-04T11:24:43;5.05;;;2.83;;
37051;SDS011;22964;52.272;13.356;2022-11-04T11:31:06;4.07;;;2.78;;
37051;SDS011;22964;52.272;13.356;2022-11-04T11:34:02;5.03;;;2.80;;
37051;SDS011;22964;52.272;13.356;2022-11-04T11:37:12;6.10;;;3.25;;
37051;SDS011;22964;52.272;13.356;2022-11-04T11:40:29;3.97;;;2.70;;
37051;SDS011;22964;52.272;13.356;2022-11-04T11:43:28;4.22;;;2.90;;
37051;SDS011;22964;52.272;13.356;2022-11-04T11:46:28;4.53;;;3.00;;
37051;SDS011;22964;52.272;13.356;2022-11-04T11:49:27;6.60;;;3.92;;
37051;SDS011;22964;52.272;13.356;2022-11-04T11:52:35;6.90;;;3.90;;
37051;SDS011;22964;52.272;13.356;2022-11-04T11:55:37;5.88;;;3.90;;
37051;SDS011;22964;52.272;13.356;2022-11-04T11:58:41;10.30;;;5.28;;
37051;SDS011;22964;52.272;13.356;2022-11-04T12:02:00;9.82;;;4.80;;
37051;SDS011;22964;52.272;13.356;2022-11-04T12:05:07;9.13;;;4.38;;
37051;SDS011;22964;52.272;13.356;2022-11-04T12:08:19;7.97;;;3.90;;
37051;SDS011;22964;52.272;13.356;2022-11-04T12:10:53;7.65;;;4.10;;
37051;SDS011;22964;52.272;13.356;2022-11-04T12:13:47;9.60;;;4.30;;
37051;SDS011;22964;52.272;13.356;2022-11-04T12:22:42;4.80;;;3.60;;
37051;SDS011;22964;52.272;13.356;2022-11-04T12:30:11;5.05;;;2.97;;
37051;SDS011;22964;52.272;13.356;2022-11-04T12:33:09;4.40;;;2.90;;
37051;SDS011;22964;52.272;13.356;2022-11-04T12:35:59;6.30;;;3.13;;
37051;SDS011;22964;52.272;13.356;2022-11-04T12:41:34;5.30;;;3.22;;
37051;SDS011;22964;52.272;13.356;2022-11-04T12:46:59;6.55;;;3.85;;
37051;SDS011;22964;52.272;13.356;2022-11-04T13:00:39;4.78;;;3.25;;
37051;SDS011;22964;52.272;13.356;2022-11-04T13:08:16;4.90;;;3.58;;
37051;SDS011;22964;52.272;13.356;2022-11-04T13:11:10;4.70;;;3.40;;
37051;SDS011;22964;52.272;13.356;2022-11-04T13:16:43;6.40;;;4.38;;
37051;SDS011;22964;52.272;13.356;2022-11-04T13:19:25;5.80;;;4.13;;
37051;SDS011;22964;52.272;13.356;2022-11-04T13:21:55;4.67;;;3.70;;
37051;SDS011;22964;52.272;13.356;2022-11-04T13:24:27;6.85;;;4.00;;
37051;SDS011;22964;52.272;13.356;2022-11-04T13:27:09;5.65;;;3.45;;
37051;SDS011;22964;52.272;13.356;2022-11-04T13:29:43;5.00;;;3.30;;
37051;SDS011;22964;52.272;13.356;2022-11-04T13:37:45;6.25;;;3.70;;
37051;SDS011;22964;52.272;13.356;2022-11-04T13:40:29;4.72;;;3.38;;
37051;SDS011;22964;52.272;13.356;2022-11-04T13:43:24;5.72;;;3.40;;
37051;SDS011;22964;52.272;13.356;2022-11-04T13:48:35;4.45;;;3.08;;
37051;SDS011;22964;52.272;13.356;2022-11-04T13:53:40;5.53;;;3.10;;
37051;SDS011;22964;52.272;13.356;2022-11-04T13:56:06;4.78;;;3.10;;
37051;SDS011;22964;52.272;13.356;2022-11-04T13:58:32;5.00;;;3.42;;
37051;SDS011;22964;52.272;13.356;2022-11-04T14:04:18;6.50;;;3.30;;
37051;SDS011;22964;52.272;13.356;2022-11-04T14:06:53;4.00;;;2.90;;
37051;SDS011;22964;52.272;13.356;2022-11-04T14:14:43;4.82;;;3.15;;
37051;SDS011;22964;52.272;13.356;2022-11-04T14:28:00;3.47;;;2.70;;
37051;SDS011;22964;52.272;13.356;2022-11-04T14:36:21;5.35;;;3.15;;
37051;SDS011;22964;52.272;13.356;2022-11-04T14:46:39;6.87;;;4.07;;
37051;SDS011;22964;52.272;13.356;2022-11-04T14:49:17;6.65;;;3.90;;
37051;SDS011;22964;52.272;13.356;2022-11-04T14:51:57;6.05;;;3.63;;
37051;SDS011;22964;52.272;13.356;2022-11-04T14:54:24;5.18;;;3.70;;
37051;SDS011;22964;52.272;13.356;2022-11-04T14:57:05;4.63;;;3.22;;
37051;SDS011;22964;52.272;13.356;2022-11-04T14:59:42;4.72;;;2.95;;
37051;SDS011;22964;52.272;13.356;2022-11-04T15:02:12;4.40;;;3.05;;
37051;SDS011;22964;52.272;13.356;2022-11-04T15:04:46;5.05;;;3.30;;
37051;SDS011;22964;52.272;13.356;2022-11-04T15:07:25;6.63;;;3.40;;
37051;SDS011;22964;52.272;13.356;2022-11-04T15:10:13;4.72;;;3.55;;
37051;SDS011;22964;52.272;13.356;2022-11-04T15:12:50;6.85;;;4.10;;
37051;SDS011;22964;52.272;13.356;2022-11-04T15:18:12;5.13;;;3.53;;
37051;SDS011;22964;52.272;13.356;2022-11-04T15:20:44;5.13;;;3.47;;
37051;SDS011;22964;52.272;13.356;2022-11-04T15:23:14;5.28;;;3.63;;
37051;SDS011;22964;52.272;13.356;2022-11-04T15:25:43;5.20;;;3.42;;
37051;SDS011;22964;52.272;13.356;2022-11-04T15:28:20;4.70;;;3.33;;
37051;SDS011;22964;52.272;13.356;2022-11-04T15:30:57;5.35;;;3.40;;
37051;SDS011;22964;52.272;13.356;2022-11-04T15:33:30;6.30;;;3.33;;
37051;SDS011;22964;52.272;13.356;2022-11-04T15:36:03;5.72;;;3.60;;
37051;SDS011;22964;52.272;13.356;2022-11-04T15:38:40;5.65;;;3.55;;
37051;SDS011;22964;52.272;13.356;2022-11-04T15:41:11;4.83;;;3.30;;
37051;SDS011;22964;52.272;13.356;2022-11-04T15:43:57;6.60;;;3.03;;
37051;SDS011;22964;52.272;13.356;2022-11-04T15:46:23;4.18;;;3.05;;
37051;SDS011;22964;52.272;13.356;2022-11-04T15:48:58;6.20;;;3.35;;
37051;SDS011;22964;52.272;13.356;2022-11-04T15:51:25;6.40;;;3.40;;
37051;SDS011;22964;52.272;13.356;2022-11-04T15:56:40;5.30;;;3.30;;
37051;SDS011;22964;52.272;13.356;2022-11-04T15:59:11;5.05;;;3.22;;
37051;SDS011;22964;52.272;13.356;2022-11-04T16:01:47;6.10;;;3.17;;
37051;SDS011;22964;52.272;13.356;2022-11-04T16:04:15;5.85;;;3.70;;
37051;SDS011;22964;52.272;13.356;2022-11-04T16:06:44;5.25;;;3.10;;
37051;SDS011;22964;52.272;13.356;2022-11-04T16:11:37;6.60;;;3.58;;
37051;SDS011;22964;52.272;13.356;2022-11-04T16:14:22;5.10;;;3.40;;
37051;SDS011;22964;52.272;13.356;2022-11-04T16:16:51;5.97;;;3.28;;
37051;SDS011;22964;52.272;13.356;2022-11-04T16:19:19;5.80;;;3.65;;
37051;SDS011;22964;52.272;13.356;2022-11-04T16:21:48;5.25;;;3.33;;
37051;SDS011;22964;52.272;13.356;2022-11-04T16:24:34;6.55;;;3.58;;
37051;SDS011;22964;52.272;13.356;2022-11-04T16:27:05;5.70;;;3.70;;
37051;SDS011;22964;52.272;13.356;2022-11-04T16:29:35;4.93;;;3.28;;
37051;SDS011;22964;52.272;13.356;2022-11-04T16:32:04;5.07;;;3.60;;
37051;SDS011;22964;52.272;13.356;2022-11-04T16:34:36;5.75;;;3.50;;
37051;SDS011;22964;52.272;13.356;2022-11-04T16:37:02;6.20;;;3.45;;
37051;SDS011;22964;52.272;13.356;2022-11-04T16:39:28;6.10;;;3.45;;
37051;SDS011;22964;52.272;13.356;2022-11-04T16:41:56;5.20;;;3.42;;
37051;SDS011;22964;52.272;13.356;2022-11-04T16:44:22;5.63;;;3.40;;
37051;SDS011;22964;52.272;13.356;2022-11-04T16:46:50;5.10;;;3.20;;
37051;SDS011;22964;52.272;13.356;2022-11-04T16:49:17;5.32;;;3.33;;
37051;SDS011;22964;52.272;13.356;2022-11-04T16:51:47;4.35;;;3.22;;
37051;SDS011;22964;52.272;13.356;2022-11-04T16:54:17;6.70;;;3.55;;
37051;SDS011;22964;52.272;13.356;2022-11-04T16:56:43;5.57;;;3.80;;
37051;SDS011;22964;52.272;13.356;2022-11-04T16:59:12;5.82;;;3.47;;
37051;SDS011;22964;52.272;13.356;2022-11-04T17:01:38;5.35;;;3.72;;
37051;SDS011;22964;52.272;13.356;2022-11-04T17:04:04;5.15;;;3.50;;
37051;SDS011;22964;52.272;13.356;2022-11-04T17:06:31;5.93;;;3.75;;
37051;SDS011;22964;52.272;13.356;2022-11-04T17:08:57;6.10;;;3.70;;
37051;SDS011;22964;52.272;13.356;2022-11-04T17:11:23;5.45;;;3.35;;
37051;SDS011;22964;52.272;13.356;2022-11-04T17:13:48;6.93;;;3.90;;
37051;SDS011;22964;52.272;13.356;2022-11-04T17:16:14;5.97;;;3.67;;
37051;SDS011;22964;52.272;13.356;2022-11-04T17:18:40;6.13;;;4.00;;
37051;SDS011;22964;52.272;13.356;2022-11-04T17:21:06;5.63;;;3.92;;
37051;SDS011;22964;52.272;13.356;2022-11-04T17:23:35;9.43;;;6.80;;
37051;SDS011;22964;52.272;13.356;2022-11-04T17:26:01;13.02;;;10.57;;
37051;SDS011;22964;52.272;13.356;2022-11-04T17:28:27;21.15;;;14.82;;
37051;SDS011;22964;52.272;13.356;2022-11-04T17:30:53;12.48;;;8.45;;
37051;SDS011;22964;52.272;13.356;2022-11-04T17:33:19;10.10;;;7.38;;
37051;SDS011;22964;52.272;13.356;2022-11-04T17:35:46;7.68;;;5.68;;
37051;SDS011;22964;52.272;13.356;2022-11-04T17:38:14;7.13;;;5.07;;
37051;SDS011;22964;52.272;13.356;2022-11-04T17:40:40;6.47;;;4.93;;
37051;SDS011;22964;52.272;13.356;2022-11-04T17:43:24;7.38;;;4.70;;
37051;SDS011;22964;52.272;13.356;2022-11-04T17:46:09;7.10;;;4.32;;
37051;SDS011;22964;52.272;13.356;2022-11-04T17:48:54;8.82;;;5.43;;
37051;SDS011;22964;52.272;13.356;2022-11-04T17:51:20;7.05;;;5.50;;
37051;SDS011;22964;52.272;13.356;2022-11-04T17:53:46;7.18;;;4.70;;
37051;SDS011;22964;52.272;13.356;2022-11-04T17:56:13;5.32;;;4.10;;
37051;SDS011;22964;52.272;13.356;2022-11-04T17:58:39;5.50;;;4.03;;
37051;SDS011;22964;52.272;13.356;2022-11-04T18:01:05;6.03;;;4.20;;
37051;SDS011;22964;52.272;13.356;2022-11-04T18:03:32;5.72;;;3.80;;